createdAt,value
2022-09-27T00:01:12.195Z,0.97
2022-09-27T00:03:40.050Z,1.33
2022-09-27T00:06:20.419Z,1.20
2022-09-27T00:08:47.387Z,1.20
2022-09-27T00:11:36.244Z,1.20
2022-09-27T00:14:05.431Z,0.93
2022-09-27T00:16:37.771Z,1.03
2022-09-27T00:19:22.575Z,0.90
2022-09-27T00:21:50.325Z,0.97
2022-09-27T00:24:22.779Z,1.17
2022-09-27T00:26:50.488Z,1.07
2022-09-27T00:29:19.520Z,1.10
2022-09-27T00:31:47.265Z,1.17
2022-09-27T00:34:23.312Z,1.00
2022-09-27T00:36:50.931Z,1.00
2022-09-27T00:39:18.947Z,1.30
2022-09-27T00:41:46.683Z,1.20
2022-09-27T00:44:25.977Z,1.00
2022-09-27T00:47:06.058Z,1.43
2022-09-27T00:49:54.844Z,1.07
2022-09-27T00:52:46.978Z,1.30
2022-09-27T00:55:28.223Z,1.23
2022-09-27T00:57:56.475Z,1.13
2022-09-27T01:00:23.526Z,1.37
2022-09-27T01:02:55.716Z,1.07
2022-09-27T01:05:28.210Z,1.23
2022-09-27T01:07:56.803Z,1.10
2022-09-27T01:10:26.802Z,1.20
2022-09-27T01:13:22.583Z,1.13
2022-09-27T01:16:23.518Z,1.27
2022-09-27T01:19:16.852Z,1.13
2022-09-27T01:22:05.541Z,1.37
2022-09-27T01:25:16.539Z,1.00
2022-09-27T01:28:47.853Z,1.40
2022-09-27T01:31:37.110Z,3.07
2022-09-27T01:34:27.565Z,1.17
2022-09-27T01:37:22.453Z,1.37
2022-09-27T01:40:32.928Z,1.00
2022-09-27T01:43:44.105Z,1.07
2022-09-27T01:46:28.557Z,1.37
2022-09-27T01:49:00.415Z,0.90
2022-09-27T01:52:02.797Z,1.00
2022-09-27T01:54:44.165Z,1.20
2022-09-27T01:57:16.963Z,1.00
2022-09-27T01:59:56.105Z,0.93
2022-09-27T02:02:27.597Z,1.00
2022-09-27T02:05:01.158Z,1.13
2022-09-27T02:08:05.402Z,0.97
2022-09-27T02:10:41.539Z,0.90
2022-09-27T02:13:22.546Z,0.93
2022-09-27T02:16:27.288Z,1.33
2022-09-27T02:19:22.127Z,1.17
2022-09-27T02:22:07.219Z,0.87
2022-09-27T02:25:05.583Z,0.97
2022-09-27T02:28:00.460Z,0.77
2022-09-27T02:30:27.644Z,0.80
2022-09-27T02:32:55.011Z,1.00
2022-09-27T02:35:34.214Z,0.90
2022-09-27T02:38:03.856Z,0.97
2022-09-27T02:40:36.361Z,0.90
2022-09-27T02:43:05.722Z,0.70
2022-09-27T02:45:54.090Z,0.93
2022-09-27T02:48:38.621Z,0.80
2022-09-27T02:52:06.934Z,1.00
2022-09-27T02:55:19.347Z,0.80
2022-09-27T02:58:38.025Z,0.80
2022-09-27T03:01:45.289Z,1.10
2022-09-27T03:04:34.488Z,0.97
2022-09-27T03:07:02.457Z,1.00
2022-09-27T03:09:48.194Z,0.93
2022-09-27T03:12:22.436Z,0.90
2022-09-27T03:14:49.974Z,1.10
2022-09-27T03:17:17.122Z,0.90
2022-09-27T03:19:44.206Z,0.70
2022-09-27T03:22:11.323Z,1.23
2022-09-27T03:24:38.303Z,0.83
2022-09-27T03:27:06.585Z,0.80
2022-09-27T03:29:33.697Z,1.10
2022-09-27T03:32:00.850Z,0.80
2022-09-27T03:34:28.247Z,1.10
2022-09-27T03:36:55.433Z,1.07
2022-09-27T03:39:22.592Z,1.13
2022-09-27T03:41:52.158Z,0.80
2022-09-27T03:44:19.245Z,1.30
2022-09-27T03:46:46.545Z,1.10
2022-09-27T03:49:13.585Z,1.10
2022-09-27T03:51:41.556Z,1.17
2022-09-27T03:54:09.482Z,1.10
2022-09-27T03:56:36.497Z,1.00
2022-09-27T03:59:03.712Z,1.20
2022-09-27T04:01:31.091Z,1.10
2022-09-27T04:03:58.239Z,1.27
2022-09-27T04:06:25.513Z,1.30
2022-09-27T04:08:52.896Z,1.23
2022-09-27T04:11:20.135Z,1.30
2022-09-27T04:13:49.171Z,1.53
2022-09-27T04:16:16.669Z,1.40
2022-09-27T04:18:44.009Z,1.33
2022-09-27T04:21:11.097Z,1.50
2022-09-27T04:23:38.313Z,1.63
2022-09-27T04:26:08.593Z,1.40
2022-09-27T04:28:35.653Z,1.30
2022-09-27T04:31:02.841Z,1.50
2022-09-27T04:33:29.932Z,1.50
2022-09-27T04:36:15.730Z,1.47
2022-09-27T04:38:42.711Z,1.70
2022-09-27T04:41:10.430Z,1.13
2022-09-27T04:43:37.411Z,1.30
2022-09-27T04:46:04.606Z,1.57
2022-09-27T04:48:32.041Z,1.53
2022-09-27T04:51:02.400Z,1.50
2022-09-27T04:53:30.136Z,1.50
2022-09-27T04:55:57.922Z,1.90
2022-09-27T04:58:26.021Z,1.70
2022-09-27T05:00:54.146Z,1.40
2022-09-27T05:03:22.005Z,1.50
2022-09-27T05:05:49.113Z,1.80
2022-09-27T05:08:16.253Z,1.50
2022-09-27T05:10:43.293Z,1.97
2022-09-27T05:13:10.353Z,1.90
2022-09-27T05:15:37.355Z,1.63
2022-09-27T05:18:04.522Z,1.33
2022-09-27T05:20:31.580Z,1.43
2022-09-27T05:22:58.655Z,1.57
2022-09-27T05:25:25.979Z,1.63
2022-09-27T05:27:53.440Z,1.60
2022-09-27T05:30:20.735Z,1.83
2022-09-27T05:32:50.590Z,1.40
2022-09-27T05:35:19.229Z,2.27
2022-09-27T05:38:00.857Z,2.03
2022-09-27T05:40:40.761Z,1.73
2022-09-27T05:43:08.641Z,1.57
2022-09-27T05:45:35.778Z,1.57
2022-09-27T05:48:06.148Z,1.90
2022-09-27T05:50:33.406Z,1.53
2022-09-27T05:53:00.395Z,1.70
2022-09-27T05:55:27.764Z,2.27
2022-09-27T05:58:01.099Z,2.10
2022-09-27T06:00:29.620Z,2.50
2022-09-27T06:03:06.238Z,1.90
2022-09-27T06:05:38.374Z,2.07
2022-09-27T06:08:13.194Z,2.27
2022-09-27T06:10:41.563Z,1.90
2022-09-27T06:13:15.297Z,2.40
2022-09-27T06:15:45.417Z,2.20
2022-09-27T06:18:18.068Z,2.20
2022-09-27T06:20:46.943Z,1.93
2022-09-27T06:23:19.040Z,2.03
2022-09-27T06:25:49.920Z,1.37
2022-09-27T06:28:18.495Z,1.50
2022-09-27T06:30:49.463Z,1.77
2022-09-27T06:33:20.457Z,1.50
2022-09-27T06:35:49.334Z,1.40
2022-09-27T06:38:18.585Z,1.80
2022-09-27T06:40:46.478Z,1.33
2022-09-27T06:43:20.550Z,2.10
2022-09-27T06:45:51.251Z,2.07
2022-09-27T06:48:18.310Z,2.10
2022-09-27T06:50:52.049Z,2.40
2022-09-27T06:53:19.135Z,1.90
2022-09-27T06:55:46.111Z,2.50
2022-09-27T06:58:31.782Z,2.20
2022-09-27T07:00:59.125Z,2.20
2022-09-27T07:03:35.554Z,1.90
2022-09-27T07:06:07.826Z,1.63
2022-09-27T07:08:35.839Z,2.20
2022-09-27T07:11:08.076Z,2.17
2022-09-27T07:13:40.205Z,1.83
2022-09-27T07:16:07.845Z,2.10
2022-09-27T07:18:35.006Z,2.20
2022-09-27T07:21:02.068Z,2.30
2022-09-27T07:23:30.379Z,2.20
2022-09-27T07:26:04.204Z,2.30
2022-09-27T07:28:32.134Z,2.60
2022-09-27T07:30:59.226Z,2.60
2022-09-27T07:33:26.514Z,2.10
2022-09-27T07:35:53.528Z,2.00
2022-09-27T07:38:20.723Z,2.13
2022-09-27T07:40:47.853Z,2.63
2022-09-27T07:43:15.203Z,2.17
2022-09-27T07:45:42.262Z,2.20
2022-09-27T07:48:14.274Z,1.70
2022-09-27T07:50:41.618Z,2.03
2022-09-27T07:53:13.866Z,2.23
2022-09-27T07:55:42.490Z,2.23
2022-09-27T07:58:12.038Z,2.40
2022-09-27T08:00:41.074Z,2.10
2022-09-27T08:03:17.703Z,2.20
2022-09-27T08:05:48.645Z,1.83
2022-09-27T08:08:17.366Z,2.20
2022-09-27T08:10:47.759Z,1.83
2022-09-27T08:13:20.099Z,2.33
2022-09-27T08:15:48.626Z,1.90
2022-09-27T08:18:16.545Z,1.87
2022-09-27T08:20:43.631Z,1.73
2022-09-27T08:23:10.766Z,1.80
2022-09-27T08:25:37.844Z,2.30
2022-09-27T08:28:05.243Z,2.13
2022-09-27T08:30:33.014Z,2.30
2022-09-27T08:33:03.222Z,2.03
2022-09-27T08:35:33.897Z,2.00
2022-09-27T08:38:05.825Z,2.00
2022-09-27T08:40:43.628Z,2.70
2022-09-27T08:43:52.527Z,1.70
2022-09-27T08:47:14.562Z,2.30
2022-09-27T08:50:40.060Z,1.90
2022-09-27T08:53:33.794Z,1.87
2022-09-27T08:56:03.837Z,2.17
2022-09-27T08:58:43.804Z,2.50
2022-09-27T09:01:17.708Z,2.13
2022-09-27T09:03:55.442Z,2.60
2022-09-27T09:06:34.697Z,2.53
2022-09-27T09:10:03.783Z,2.27
2022-09-27T09:12:57.666Z,2.10
2022-09-27T09:16:09.495Z,2.87
2022-09-27T09:19:14.234Z,2.90
2022-09-27T09:22:12.246Z,2.20
2022-09-27T09:25:09.827Z,2.60
2022-09-27T09:28:02.551Z,2.67
2022-09-27T09:31:06.620Z,2.60
2022-09-27T09:33:47.175Z,2.43
2022-09-27T09:36:46.899Z,2.70
2022-09-27T09:39:47.167Z,2.53
2022-09-27T09:43:02.671Z,2.20
2022-09-27T09:45:36.509Z,2.40
2022-09-27T09:48:42.464Z,2.30
2022-09-27T09:51:22.360Z,2.50
2022-09-27T09:54:15.816Z,2.50
2022-09-27T09:56:51.642Z,2.47
2022-09-27T09:59:35.681Z,2.23
2022-09-27T10:02:43.074Z,2.40
2022-09-27T10:05:24.735Z,2.20
2022-09-27T10:07:57.931Z,2.20
2022-09-27T10:10:25.449Z,2.50
2022-09-27T10:12:52.732Z,2.13
2022-09-27T10:15:30.228Z,2.00
2022-09-27T10:17:59.848Z,2.63
2022-09-27T10:20:45.111Z,3.57
2022-09-27T10:23:22.223Z,3.07
2022-09-27T10:25:55.895Z,2.00
2022-09-27T10:28:45.861Z,2.20
2022-09-27T10:31:18.324Z,2.13
2022-09-27T10:34:04.436Z,1.70
2022-09-27T10:36:36.307Z,2.27
2022-09-27T10:39:07.051Z,2.00
2022-09-27T10:41:44.247Z,1.90
2022-09-27T10:44:20.284Z,1.93
2022-09-27T10:46:51.905Z,2.57
2022-09-27T10:49:52.591Z,2.00
2022-09-27T10:52:24.178Z,2.20
2022-09-27T10:55:13.831Z,2.13
2022-09-27T10:57:45.079Z,1.93
2022-09-27T11:00:36.609Z,1.90
2022-09-27T11:03:16.544Z,2.50
2022-09-27T11:05:43.937Z,1.70
2022-09-27T11:08:27.227Z,2.00
2022-09-27T11:11:26.899Z,1.57
2022-09-27T11:14:17.841Z,1.40
2022-09-27T11:17:09.861Z,1.80
2022-09-27T11:20:34.003Z,1.60
2022-09-27T11:23:55.284Z,1.50
2022-09-27T11:26:46.993Z,1.20
2022-09-27T11:29:53.334Z,1.60
2022-09-27T11:33:07.920Z,1.50
2022-09-27T11:36:07.978Z,1.50
2022-09-27T11:39:02.381Z,1.43
2022-09-27T11:42:08.915Z,1.50
2022-09-27T11:48:43.581Z,2.00
2022-09-27T11:52:07.670Z,2.83
2022-09-27T11:55:34.805Z,4.90
2022-09-27T11:58:32.382Z,4.40
2022-09-27T12:02:01.303Z,5.57
2022-09-27T12:04:51.540Z,6.53
2022-09-27T12:07:53.713Z,6.63
2022-09-27T12:10:21.690Z,4.17
2022-09-27T12:12:55.840Z,4.33
2022-09-27T12:15:34.581Z,3.47
2022-09-27T12:18:33.425Z,1.40
2022-09-27T12:21:03.380Z,1.10
2022-09-27T12:23:41.646Z,1.43
2022-09-27T12:26:28.353Z,1.00
2022-09-27T12:29:20.961Z,0.63
2022-09-27T12:32:38.853Z,0.60
2022-09-27T12:35:30.990Z,0.70
2022-09-27T12:38:17.499Z,0.57
2022-09-27T12:40:55.478Z,0.90
2022-09-27T12:43:28.814Z,0.80
2022-09-27T12:46:10.616Z,1.03
2022-09-27T12:49:21.384Z,1.20
2022-09-27T12:51:58.659Z,1.13
2022-09-27T12:55:04.205Z,1.20
2022-09-27T12:58:24.483Z,1.10
2022-09-27T13:01:13.383Z,0.83
2022-09-27T13:04:16.638Z,1.10
2022-09-27T13:07:49.384Z,1.23
2022-09-27T13:10:41.576Z,1.47
2022-09-27T13:13:14.741Z,1.30
2022-09-27T13:15:45.709Z,1.10
2022-09-27T13:18:56.312Z,1.20
2022-09-27T13:21:55.316Z,1.27
2022-09-27T13:24:46.832Z,1.10
2022-09-27T13:27:29.082Z,1.47
2022-09-27T13:30:19.086Z,0.87
2022-09-27T13:33:48.788Z,0.80
2022-09-27T13:36:24.866Z,0.50
2022-09-27T13:39:19.846Z,0.47
2022-09-27T13:41:49.631Z,0.57
2022-09-27T13:45:20.158Z,0.40
2022-09-27T13:47:50.485Z,0.50
2022-09-27T13:50:48.224Z,0.43
2022-09-27T13:53:35.246Z,0.50
2022-09-27T13:56:03.102Z,0.80
2022-09-27T13:59:10.578Z,0.60
2022-09-27T14:02:25.850Z,0.33
2022-09-27T14:04:55.179Z,0.37
2022-09-27T14:07:34.917Z,0.37
2022-09-27T14:10:06.283Z,0.60
2022-09-27T14:12:38.673Z,0.70
2022-09-27T14:15:10.783Z,0.50
2022-09-27T14:17:45.966Z,0.40
2022-09-27T14:20:41.805Z,0.53
2022-09-27T14:23:25.962Z,0.90
2022-09-27T14:25:55.201Z,0.70
2022-09-27T14:28:40.432Z,0.70
2022-09-27T14:31:17.735Z,0.60
2022-09-27T14:33:46.154Z,0.60
2022-09-27T14:36:50.299Z,0.77
2022-09-27T14:39:36.318Z,1.00
2022-09-27T14:42:17.662Z,1.20
2022-09-27T14:44:45.521Z,1.43
2022-09-27T14:47:28.235Z,1.50
2022-09-27T14:50:12.917Z,1.17
2022-09-27T14:52:40.423Z,1.53
2022-09-27T14:55:22.043Z,1.83
2022-09-27T14:58:02.999Z,1.70
2022-09-27T15:00:36.322Z,1.70
2022-09-27T15:03:09.924Z,1.10
2022-09-27T15:05:43.185Z,1.27
2022-09-27T15:08:12.780Z,1.27
2022-09-27T15:10:40.552Z,1.30
2022-09-27T15:13:07.794Z,1.70
2022-09-27T15:15:39.789Z,1.10
2022-09-27T15:18:42.538Z,1.00
2022-09-27T15:21:37.362Z,1.50
2022-09-27T15:24:05.167Z,1.40
2022-09-27T15:26:45.934Z,1.30
2022-09-27T15:29:26.531Z,1.57
2022-09-27T15:32:06.792Z,1.40
2022-09-27T15:34:35.676Z,1.50
2022-09-27T15:37:05.097Z,1.37
2022-09-27T15:39:39.993Z,1.57
2022-09-27T15:42:17.557Z,1.90
2022-09-27T15:44:54.820Z,2.00
2022-09-27T15:47:42.944Z,1.80
2022-09-27T15:50:15.706Z,2.00
2022-09-27T15:52:47.447Z,2.17
2022-09-27T15:55:15.875Z,2.33
2022-09-27T15:57:45.913Z,2.27
2022-09-27T16:00:16.889Z,2.27
2022-09-27T16:02:47.966Z,2.70
2022-09-27T16:05:15.066Z,2.67
2022-09-27T16:07:42.508Z,2.50
2022-09-27T16:10:25.955Z,2.40
2022-09-27T16:12:52.936Z,2.37
2022-09-27T16:15:20.069Z,2.40
2022-09-27T16:17:47.082Z,2.60
2022-09-27T16:20:25.022Z,2.50
2022-09-27T16:22:53.828Z,2.40
2022-09-27T16:25:23.375Z,1.80
2022-09-27T16:27:50.995Z,1.90
2022-09-27T16:30:18.750Z,1.03
2022-09-27T16:32:48.529Z,1.00
2022-09-27T16:35:19.871Z,0.90
2022-09-27T16:37:47.227Z,0.80
2022-09-27T16:40:17.874Z,0.80
2022-09-27T16:42:48.727Z,0.90
2022-09-27T16:45:19.326Z,1.10
2022-09-27T16:47:47.440Z,0.73
2022-09-27T16:50:34.239Z,1.00
2022-09-27T16:53:05.158Z,1.00
2022-09-27T16:55:32.327Z,0.90
2022-09-27T16:57:59.990Z,0.93
2022-09-27T17:00:27.658Z,1.20
2022-09-27T17:02:54.877Z,1.60
2022-09-27T17:05:23.051Z,1.17
2022-09-27T17:07:52.863Z,1.10
2022-09-27T17:10:23.839Z,1.10
2022-09-27T17:12:51.115Z,1.00
2022-09-27T17:15:18.525Z,1.10
2022-09-27T17:17:50.117Z,1.20
2022-09-27T17:20:17.577Z,0.90
2022-09-27T17:22:44.615Z,1.03
2022-09-27T17:25:11.617Z,0.77
2022-09-27T17:27:38.662Z,1.10
2022-09-27T17:30:06.950Z,0.90
2022-09-27T17:32:34.806Z,0.80
2022-09-27T17:35:02.576Z,0.67
2022-09-27T17:37:29.873Z,1.00
2022-09-27T17:39:57.570Z,0.67
2022-09-27T17:42:25.518Z,1.30
2022-09-27T17:44:52.749Z,1.57
2022-09-27T17:47:38.626Z,1.50
2022-09-27T17:50:24.636Z,2.07
2022-09-27T17:52:57.311Z,2.43
2022-09-27T17:55:24.921Z,2.03
2022-09-27T17:57:52.344Z,1.93
2022-09-27T18:00:20.704Z,1.90
2022-09-27T18:02:48.529Z,2.40
2022-09-27T18:05:15.765Z,1.67
2022-09-27T18:07:42.829Z,2.27
2022-09-27T18:10:09.942Z,2.00
2022-09-27T18:12:39.421Z,2.13
2022-09-27T18:15:08.031Z,1.80
2022-09-27T18:17:36.345Z,2.30
2022-09-27T18:20:05.316Z,2.30
2022-09-27T18:22:32.297Z,2.10
2022-09-27T18:25:00.907Z,1.90
2022-09-27T18:27:28.840Z,1.73
2022-09-27T18:29:55.846Z,2.10
2022-09-27T18:32:22.860Z,2.10
2022-09-27T18:34:49.849Z,2.10
2022-09-27T18:37:16.810Z,2.00
2022-09-27T18:39:43.822Z,2.33
2022-09-27T18:42:10.814Z,1.97
2022-09-27T18:44:37.856Z,1.77
2022-09-27T18:47:04.848Z,1.80
2022-09-27T18:49:34.237Z,1.87
2022-09-27T18:52:02.529Z,2.20
2022-09-27T18:54:29.556Z,2.20
2022-09-27T18:56:56.529Z,1.90
2022-09-27T18:59:24.031Z,2.03
2022-09-27T19:01:51.546Z,1.70
2022-09-27T19:04:25.729Z,1.60
2022-09-27T19:06:56.782Z,1.30
2022-09-27T19:09:26.699Z,1.30
2022-09-27T19:11:53.817Z,1.80
2022-09-27T19:14:22.655Z,1.60
2022-09-27T19:16:50.771Z,1.80
2022-09-27T19:19:19.502Z,1.43
2022-09-27T19:21:47.735Z,1.30
2022-09-27T19:24:16.240Z,1.40
2022-09-27T19:26:43.555Z,1.43
2022-09-27T19:29:11.513Z,1.37
2022-09-27T19:31:38.696Z,1.70
2022-09-27T19:34:05.725Z,1.77
2022-09-27T19:36:32.794Z,1.60
2022-09-27T19:39:00.307Z,1.10
2022-09-27T19:41:27.365Z,1.30
2022-09-27T19:43:56.534Z,1.50
2022-09-27T19:46:25.551Z,1.20
2022-09-27T19:48:53.727Z,1.20
2022-09-27T19:51:25.089Z,1.10
2022-09-27T19:53:53.594Z,1.23
2022-09-27T19:56:22.067Z,1.73
2022-09-27T19:58:49.474Z,1.47
2022-09-27T20:01:25.907Z,1.60
2022-09-27T20:03:55.792Z,1.73
2022-09-27T20:06:23.096Z,1.83
2022-09-27T20:08:50.282Z,1.40
2022-09-27T20:11:23.280Z,1.40
2022-09-27T20:13:53.047Z,1.40
2022-09-27T20:16:24.027Z,1.10
2022-09-27T20:18:55.366Z,1.20
2022-09-27T20:21:34.018Z,1.53
2022-09-27T20:24:04.529Z,1.10
2022-09-27T20:26:34.510Z,1.50
2022-09-27T20:29:03.368Z,1.23
2022-09-27T20:31:36.786Z,1.37
2022-09-27T20:34:06.844Z,1.57
2022-09-27T20:36:41.372Z,1.37
2022-09-27T20:39:15.342Z,1.37
2022-09-27T20:41:46.310Z,1.30
2022-09-27T20:44:19.755Z,1.50
2022-09-27T20:46:48.165Z,1.50
2022-09-27T20:49:18.582Z,1.37
2022-09-27T20:51:51.308Z,1.40
2022-09-27T20:54:18.586Z,1.10
2022-09-27T20:56:48.590Z,1.47
2022-09-27T20:59:22.619Z,1.17
2022-09-27T21:01:52.263Z,1.20
2022-09-27T21:04:21.319Z,1.23
2022-09-27T21:06:48.350Z,0.97
2022-09-27T21:09:19.409Z,1.40
2022-09-27T21:11:48.995Z,1.00
2022-09-27T21:14:16.201Z,1.10
2022-09-27T21:16:43.334Z,1.07
2022-09-27T21:19:10.616Z,1.20
2022-09-27T21:21:37.602Z,0.93
2022-09-27T21:24:05.169Z,0.83
2022-09-27T21:26:33.654Z,0.90
2022-09-27T21:29:06.413Z,0.87
2022-09-27T21:31:34.160Z,0.73
2022-09-27T21:34:04.005Z,0.53
2022-09-27T21:36:35.558Z,0.60
2022-09-27T21:39:04.269Z,0.63
2022-09-27T21:41:31.367Z,0.80
2022-09-27T21:43:58.456Z,0.60
2022-09-27T21:46:28.646Z,0.60
2022-09-27T21:49:00.121Z,0.63
2022-09-27T21:51:40.446Z,0.70
2022-09-27T21:54:15.099Z,0.60
2022-09-27T21:56:44.087Z,0.50
2022-09-27T21:59:15.542Z,0.60
2022-09-27T22:01:45.634Z,0.60
2022-09-27T22:04:13.212Z,0.50
2022-09-27T22:06:40.583Z,0.57
2022-09-27T22:09:16.613Z,0.60
2022-09-27T22:11:44.681Z,0.83
2022-09-27T22:14:13.006Z,0.60
2022-09-27T22:16:40.042Z,0.50
2022-09-27T22:19:07.881Z,0.70
2022-09-27T22:21:38.676Z,0.93
2022-09-27T22:24:18.261Z,0.47
2022-09-27T22:26:52.803Z,0.60
2022-09-27T22:29:20.411Z,0.63
2022-09-27T22:31:47.975Z,0.57
2022-09-27T22:34:28.633Z,0.50
2022-09-27T22:37:00.771Z,0.60
2022-09-27T22:39:28.857Z,0.60
2022-09-27T22:41:56.139Z,0.53
2022-09-27T22:44:23.441Z,0.70
2022-09-27T22:46:50.390Z,0.73
2022-09-27T22:49:17.479Z,0.70
2022-09-27T22:51:44.579Z,0.70
2022-09-27T22:54:11.522Z,0.57
2022-09-27T22:56:38.514Z,0.70
2022-09-27T22:59:05.538Z,0.80
2022-09-27T23:01:32.621Z,0.60
2022-09-27T23:03:59.760Z,0.67
2022-09-27T23:06:26.966Z,0.80
2022-09-27T23:08:54.864Z,0.87
2022-09-27T23:11:23.105Z,1.00
2022-09-27T23:13:51.428Z,0.70
2022-09-27T23:16:25.902Z,0.70
2022-09-27T23:18:57.054Z,0.83
2022-09-27T23:21:26.172Z,0.77
2022-09-27T23:23:56.610Z,1.00
2022-09-27T23:26:26.822Z,0.90
2022-09-27T23:28:56.767Z,1.63
2022-09-27T23:31:25.417Z,1.20
2022-09-27T23:33:54.503Z,1.30
2022-09-27T23:36:26.686Z,1.20
2022-09-27T23:38:58.078Z,1.37
2022-09-27T23:41:25.053Z,1.03
2022-09-27T23:43:53.294Z,1.47
2022-09-27T23:46:21.121Z,1.30
2022-09-27T23:48:48.676Z,1.20
2022-09-27T23:51:15.718Z,1.60
2022-09-27T23:53:42.890Z,1.40
2022-09-27T23:56:15.622Z,1.50
2022-09-27T23:58:45.581Z,1.50
